sensor_id;sensor_type;location;lat;lon;timestamp;pressure;altitude;pressure_sealevel;temperature;humidity
75717;BME280;64333;50.138;14.332;2022-12-13T00:00:01;97776.91;;;-7.33;94.11
75717;BME280;64333;50.138;14.332;2022-12-13T00:02:26;97775.22;;;-7.34;92.26
75717;BME280;64333;50.138;14.332;2022-12-13T00:04:51;97775.22;;;-7.34;92.73
75717;BME280;64333;50.138;14.332;2022-12-13T00:07:17;97776.84;;;-7.36;94.47
75717;BME280;64333;50.138;14.332;2022-12-13T00:09:42;97767.59;;;-7.40;94.01
75717;BME280;64333;50.138;14.332;2022-12-13T00:12:07;97777.59;;;-7.41;93.48
75717;BME280;64333;50.138;14.332;2022-12-13T00:14:33;97776.56;;;-7.51;92.47
75717;BME280;64333;50.138;14.332;2022-12-13T00:16:58;97775.72;;;-7.51;93.65
75717;BME280;64333;50.138;14.332;2022-12-13T00:19:24;97773.13;;;-7.56;93.50
75717;BME280;64333;50.138;14.332;2022-12-13T00:21:50;97760.56;;;-7.59;93.42
75717;BME280;64333;50.138;14.332;2022-12-13T00:24:15;97770.00;;;-7.46;93.40
75717;BME280;64333;50.138;14.332;2022-12-13T00:26:40;97760.06;;;-7.40;93.86
75717;BME280;64333;50.138;14.332;2022-12-13T00:29:06;97763.38;;;-7.41;92.32
75717;BME280;64333;50.138;14.332;2022-12-13T00:31:32;97761.66;;;-7.45;93.30
75717;BME280;64333;50.138;14.332;2022-12-13T00:33:58;97773.31;;;-7.47;93.67
75717;BME280;64333;50.138;14.332;2022-12-13T00:36:24;97761.66;;;-7.45;92.97
75717;BME280;64333;50.138;14.332;2022-12-13T00:38:49;97763.34;;;-7.44;94.61
75717;BME280;64333;50.138;14.332;2022-12-13T00:41:25;97771.78;;;-7.39;93.19
75717;BME280;64333;50.138;14.332;2022-12-13T00:43:51;97765.03;;;-7.41;92.22
75717;BME280;64333;50.138;14.332;2022-12-13T00:46:19;97769.25;;;-7.40;93.79
75717;BME280;64333;50.138;14.332;2022-12-13T00:48:51;97765.88;;;-7.42;93.97
75717;BME280;64333;50.138;14.332;2022-12-13T00:51:17;97769.34;;;-7.34;94.38
75717;BME280;64333;50.138;14.332;2022-12-13T00:53:43;97765.13;;;-7.37;93.08
75717;BME280;64333;50.138;14.332;2022-12-13T00:56:11;97770.84;;;-7.44;92.88
75717;BME280;64333;50.138;14.332;2022-12-13T00:58:37;97764.88;;;-7.52;91.73
75717;BME280;64333;50.138;14.332;2022-12-13T01:01:04;97768.94;;;-7.57;92.03
75717;BME280;64333;50.138;14.332;2022-12-13T01:03:30;97770.50;;;-7.63;91.49
75717;BME280;64333;50.138;14.332;2022-12-13T01:05:56;97767.75;;;-7.77;91.80
75717;BME280;64333;50.138;14.332;2022-12-13T01:08:21;97761.78;;;-7.83;92.05
75717;BME280;64333;50.138;14.332;2022-12-13T01:10:47;97766.69;;;-7.89;93.14
75717;BME280;64333;50.138;14.332;2022-12-13T01:13:13;97770.88;;;-7.88;91.65
75717;BME280;64333;50.138;14.332;2022-12-13T01:15:41;97770.75;;;-7.94;91.93
75717;BME280;64333;50.138;14.332;2022-12-13T01:18:06;97757.25;;;-8.01;92.54
75717;BME280;64333;50.138;14.332;2022-12-13T01:20:32;97766.41;;;-8.03;92.78
75717;BME280;64333;50.138;14.332;2022-12-13T01:22:57;97772.22;;;-8.04;92.83
75717;BME280;64333;50.138;14.332;2022-12-13T01:25:23;97762.25;;;-8.01;93.11
75717;BME280;64333;50.138;14.332;2022-12-13T01:27:48;97763.97;;;-7.98;93.59
75717;BME280;64333;50.138;14.332;2022-12-13T01:30:14;97759.75;;;-8.01;92.18
75717;BME280;64333;50.138;14.332;2022-12-13T01:32:39;97762.34;;;-7.98;94.33
75717;BME280;64333;50.138;14.332;2022-12-13T01:35:05;97757.25;;;-8.01;93.23
75717;BME280;64333;50.138;14.332;2022-12-13T01:37:30;97757.25;;;-8.02;93.59
75717;BME280;64333;50.138;14.332;2022-12-13T01:39:56;97758.84;;;-8.06;93.16
75717;BME280;64333;50.138;14.332;2022-12-13T01:42:21;97755.53;;;-8.05;93.36
75717;BME280;64333;50.138;14.332;2022-12-13T01:47:32;97756.44;;;-8.01;92.13
75717;BME280;64333;50.138;14.332;2022-12-13T01:50:00;97753.22;;;-7.94;93.03
75717;BME280;64333;50.138;14.332;2022-12-13T01:52:29;97754.94;;;-7.92;94.16
75717;BME280;64333;50.138;14.332;2022-12-13T01:54:57;97754.06;;;-7.94;94.08
75717;BME280;64333;50.138;14.332;2022-12-13T01:57:24;97757.50;;;-7.89;93.67
75717;BME280;64333;50.138;14.332;2022-12-13T01:59:50;97752.47;;;-7.90;93.68
75717;BME280;64333;50.138;14.332;2022-12-13T02:02:17;97747.47;;;-7.89;91.88
75717;BME280;64333;50.138;14.332;2022-12-13T02:04:51;97750.75;;;-7.93;92.49
75717;BME280;64333;50.138;14.332;2022-12-13T02:07:25;97758.25;;;-7.93;93.48
75717;BME280;64333;50.138;14.332;2022-12-13T02:09:55;97757.41;;;-7.93;93.65
75717;BME280;64333;50.138;14.332;2022-12-13T02:12:24;97742.13;;;-8.05;92.17
75717;BME280;64333;50.138;14.332;2022-12-13T02:14:51;97752.34;;;-7.95;92.57
75717;BME280;64333;50.138;14.332;2022-12-13T02:30:53;97755.75;;;-7.93;92.79
75717;BME280;64333;50.138;14.332;2022-12-13T02:41:03;97758.88;;;-8.03;93.16
75717;BME280;64333;50.138;14.332;2022-12-13T02:43:49;97758.03;;;-8.05;92.01
75717;BME280;64333;50.138;14.332;2022-12-13T02:46:20;97756.19;;;-8.13;91.32
75717;BME280;64333;50.138;14.332;2022-12-13T02:48:48;97764.47;;;-8.16;91.54
75717;BME280;64333;50.138;14.332;2022-12-13T02:51:16;97757.78;;;-8.17;91.98
75717;BME280;64333;50.138;14.332;2022-12-13T02:53:43;97755.41;;;-8.11;92.37
75717;BME280;64333;50.138;14.332;2022-12-13T02:56:09;97747.84;;;-8.12;92.04
75717;BME280;64333;50.138;14.332;2022-12-13T02:58:46;97744.72;;;-8.02;93.15
75717;BME280;64333;50.138;14.332;2022-12-13T03:01:28;97742.22;;;-8.01;92.70
75717;BME280;64333;50.138;14.332;2022-12-13T03:07:10;97750.06;;;-7.84;93.34
75717;BME280;64333;50.138;14.332;2022-12-13T03:09:55;97744.13;;;-7.88;93.36
75717;BME280;64333;50.138;14.332;2022-12-13T03:12:33;97740.81;;;-7.88;93.90
75717;BME280;64333;50.138;14.332;2022-12-13T03:15:21;97731.56;;;-7.91;92.75
75717;BME280;64333;50.138;14.332;2022-12-13T03:20:22;97735.72;;;-7.93;94.11
75717;BME280;64333;50.138;14.332;2022-12-13T03:22:49;97732.34;;;-7.93;94.05
75717;BME280;64333;50.138;14.332;2022-12-13T03:25:15;97725.63;;;-7.96;93.51
75717;BME280;64333;50.138;14.332;2022-12-13T03:27:40;97714.75;;;-7.98;92.68
75717;BME280;64333;50.138;14.332;2022-12-13T03:30:06;97727.50;;;-7.86;93.05
75717;BME280;64333;50.138;14.332;2022-12-13T03:32:32;97719.09;;;-7.88;92.75
75717;BME280;64333;50.138;14.332;2022-12-13T03:34:57;97725.72;;;-7.91;93.08
75717;BME280;64333;50.138;14.332;2022-12-13T03:37:23;97720.56;;;-7.99;92.46
75717;BME280;64333;50.138;14.332;2022-12-13T03:39:48;97720.50;;;-8.02;92.78
75717;BME280;64333;50.138;14.332;2022-12-13T03:42:14;97722.09;;;-8.07;92.42
75717;BME280;64333;50.138;14.332;2022-12-13T03:44:41;97713.78;;;-8.04;93.93
75717;BME280;64333;50.138;14.332;2022-12-13T03:47:07;97716.22;;;-8.07;93.29
75717;BME280;64333;50.138;14.332;2022-12-13T03:49:32;97716.91;;;-8.16;92.87
75717;BME280;64333;50.138;14.332;2022-12-13T03:51:58;97713.47;;;-8.22;92.79
75717;BME280;64333;50.138;14.332;2022-12-13T03:54:23;97711.81;;;-8.22;92.83
75717;BME280;64333;50.138;14.332;2022-12-13T03:56:49;97713.16;;;-8.37;92.09
75717;BME280;64333;50.138;14.332;2022-12-13T03:59:14;97711.47;;;-8.40;91.82
75717;BME280;64333;50.138;14.332;2022-12-13T04:01:40;97718.13;;;-8.40;92.37
75717;BME280;64333;50.138;14.332;2022-12-13T04:04:05;97705.59;;;-8.40;94.01
75717;BME280;64333;50.138;14.332;2022-12-13T04:06:31;97714.91;;;-8.33;94.02
75717;BME280;64333;50.138;14.332;2022-12-13T04:08:56;97717.47;;;-8.32;94.27
75717;BME280;64333;50.138;14.332;2022-12-13T04:11:21;97708.28;;;-8.31;95.08
75717;BME280;64333;50.138;14.332;2022-12-13T04:14:06;97709.16;;;-8.29;94.67
75717;BME280;64333;50.138;14.332;2022-12-13T04:16:31;97715.00;;;-8.29;94.04
75717;BME280;64333;50.138;14.332;2022-12-13T04:18:57;97703.25;;;-8.33;93.95
75717;BME280;64333;50.138;14.332;2022-12-13T04:21:22;97710.00;;;-8.29;94.43
75717;BME280;64333;50.138;14.332;2022-12-13T04:23:47;97704.25;;;-8.25;94.70
75717;BME280;64333;50.138;14.332;2022-12-13T04:26:13;97699.97;;;-8.29;93.66
75717;BME280;64333;50.138;14.332;2022-12-13T04:28:39;97703.44;;;-8.24;94.34
75717;BME280;64333;50.138;14.332;2022-12-13T04:31:04;97705.09;;;-8.23;94.53
75717;BME280;64333;50.138;14.332;2022-12-13T04:33:30;97705.84;;;-8.28;93.18
75717;BME280;64333;50.138;14.332;2022-12-13T04:35:57;97703.88;;;-8.43;91.80
75717;BME280;64333;50.138;14.332;2022-12-13T04:38:22;97708.72;;;-8.52;92.39
75717;BME280;64333;50.138;14.332;2022-12-13T04:40:48;97702.03;;;-8.51;92.91
75717;BME280;64333;50.138;14.332;2022-12-13T04:43:13;97700.47;;;-8.46;92.73
75717;BME280;64333;50.138;14.332;2022-12-13T04:45:39;97706.59;;;-8.32;93.46
75717;BME280;64333;50.138;14.332;2022-12-13T04:48:04;97691.03;;;-8.16;94.62
75717;BME280;64333;50.138;14.332;2022-12-13T04:50:30;97698.66;;;-8.10;93.04
75717;BME280;64333;50.138;14.332;2022-12-13T04:52:55;97695.41;;;-8.05;92.65
75717;BME280;64333;50.138;14.332;2022-12-13T04:55:20;97697.94;;;-8.03;91.85
75717;BME280;64333;50.138;14.332;2022-12-13T04:57:46;97689.38;;;-8.14;92.58
75717;BME280;64333;50.138;14.332;2022-12-13T05:00:12;97690.94;;;-8.21;91.29
75717;BME280;64333;50.138;14.332;2022-12-13T05:02:38;97695.78;;;-8.30;91.41
75717;BME280;64333;50.138;14.332;2022-12-13T05:05:06;97686.44;;;-8.40;93.18
75717;BME280;64333;50.138;14.332;2022-12-13T05:07:32;97691.31;;;-8.44;91.55
75717;BME280;64333;50.138;14.332;2022-12-13T05:09:57;97684.72;;;-8.42;94.50
75717;BME280;64333;50.138;14.332;2022-12-13T05:12:23;97687.22;;;-8.41;93.47
75717;BME280;64333;50.138;14.332;2022-12-13T05:14:50;97690.47;;;-8.46;93.37
75717;BME280;64333;50.138;14.332;2022-12-13T05:17:15;97699.69;;;-8.44;94.78
75717;BME280;64333;50.138;14.332;2022-12-13T05:19:41;97692.03;;;-8.51;92.83
75717;BME280;64333;50.138;14.332;2022-12-13T05:22:08;97696.19;;;-8.52;94.01
75717;BME280;64333;50.138;14.332;2022-12-13T05:24:40;97686.19;;;-8.52;93.49
75717;BME280;64333;50.138;14.332;2022-12-13T05:27:05;97682.78;;;-8.55;93.33
75717;BME280;64333;50.138;14.332;2022-12-13T05:29:31;97687.78;;;-8.54;93.21
75717;BME280;64333;50.138;14.332;2022-12-13T05:31:56;97688.56;;;-8.58;92.69
75717;BME280;64333;50.138;14.332;2022-12-13T05:34:22;97690.50;;;-8.45;93.13
75717;BME280;64333;50.138;14.332;2022-12-13T05:36:47;97684.63;;;-8.47;93.51
75717;BME280;64333;50.138;14.332;2022-12-13T05:39:12;97684.69;;;-8.44;93.29
75717;BME280;64333;50.138;14.332;2022-12-13T05:41:38;97683.78;;;-8.47;93.50
75717;BME280;64333;50.138;14.332;2022-12-13T05:44:03;97697.81;;;-8.54;92.33
75717;BME280;64333;50.138;14.332;2022-12-13T05:46:29;97685.97;;;-8.61;92.83
75717;BME280;64333;50.138;14.332;2022-12-13T05:48:55;97696.06;;;-8.58;93.38
75717;BME280;64333;50.138;14.332;2022-12-13T05:51:20;97703.50;;;-8.62;92.61
75717;BME280;64333;50.138;14.332;2022-12-13T05:53:45;97696.81;;;-8.62;93.30
75717;BME280;64333;50.138;14.332;2022-12-13T05:56:11;97695.22;;;-8.60;93.04
75717;BME280;64333;50.138;14.332;2022-12-13T05:58:38;97693.41;;;-8.65;93.36
75717;BME280;64333;50.138;14.332;2022-12-13T06:01:09;97702.59;;;-8.64;93.02
75717;BME280;64333;50.138;14.332;2022-12-13T06:03:35;97692.56;;;-8.66;92.83
75717;BME280;64333;50.138;14.332;2022-12-13T06:06:01;97704.31;;;-8.62;93.54
75717;BME280;64333;50.138;14.332;2022-12-13T06:08:28;97710.06;;;-8.67;93.31
75717;BME280;64333;50.138;14.332;2022-12-13T06:10:55;97709.28;;;-8.65;93.31
75717;BME280;64333;50.138;14.332;2022-12-13T06:13:20;97704.19;;;-8.68;93.42
75717;BME280;64333;50.138;14.332;2022-12-13T06:15:46;97692.50;;;-8.69;94.67
75717;BME280;64333;50.138;14.332;2022-12-13T06:18:11;97703.28;;;-8.71;92.99
75717;BME280;64333;50.138;14.332;2022-12-13T06:20:36;97705.00;;;-8.69;94.66
75717;BME280;64333;50.138;14.332;2022-12-13T06:23:02;97708.50;;;-8.61;94.27
75717;BME280;64333;50.138;14.332;2022-12-13T06:25:28;97699.41;;;-8.59;95.19
75717;BME280;64333;50.138;14.332;2022-12-13T06:27:53;97689.56;;;-8.50;95.31
75717;BME280;64333;50.138;14.332;2022-12-13T06:30:19;97701.91;;;-8.59;93.02
75717;BME280;64333;50.138;14.332;2022-12-13T06:32:49;97699.25;;;-8.65;93.93
75717;BME280;64333;50.138;14.332;2022-12-13T06:35:15;97704.06;;;-8.74;94.26
75717;BME280;64333;50.138;14.332;2022-12-13T06:37:41;97704.91;;;-8.73;95.65
75717;BME280;64333;50.138;14.332;2022-12-13T06:40:06;97691.53;;;-8.75;94.74
75717;BME280;64333;50.138;14.332;2022-12-13T06:42:32;97701.56;;;-8.74;94.68
75717;BME280;64333;50.138;14.332;2022-12-13T06:44:57;97700.81;;;-8.70;94.39
75717;BME280;64333;50.138;14.332;2022-12-13T06:47:24;97705.94;;;-8.64;94.41
75717;BME280;64333;50.138;14.332;2022-12-13T06:49:50;97709.19;;;-8.68;94.02
75717;BME280;64333;50.138;14.332;2022-12-13T06:52:15;97709.41;;;-8.59;94.71
75717;BME280;64333;50.138;14.332;2022-12-13T06:54:42;97708.84;;;-8.46;94.86
75717;BME280;64333;50.138;14.332;2022-12-13T06:57:08;97707.44;;;-8.32;94.77
75717;BME280;64333;50.138;14.332;2022-12-13T06:59:34;97711.63;;;-8.31;94.78
75717;BME280;64333;50.138;14.332;2022-12-13T07:01:59;97706.75;;;-8.25;93.67
75717;BME280;64333;50.138;14.332;2022-12-13T07:04:25;97718.91;;;-8.00;92.03
75717;BME280;64333;50.138;14.332;2022-12-13T07:06:50;97715.44;;;-7.59;90.99
75717;BME280;64333;50.138;14.332;2022-12-13T07:09:16;97719.66;;;-7.04;88.88
75717;BME280;64333;50.138;14.332;2022-12-13T07:11:41;97723.75;;;-6.51;87.19
75717;BME280;64333;50.138;14.332;2022-12-13T07:14:08;97724.50;;;-5.93;85.23
75717;BME280;64333;50.138;14.332;2022-12-13T07:16:33;97722.50;;;-5.36;83.10
75717;BME280;64333;50.138;14.332;2022-12-13T07:19:00;97730.34;;;-4.99;81.08
75717;BME280;64333;50.138;14.332;2022-12-13T07:21:28;97734.78;;;-4.66;80.52
75717;BME280;64333;50.138;14.332;2022-12-13T07:23:53;97731.63;;;-4.35;79.06
75717;BME280;64333;50.138;14.332;2022-12-13T07:26:19;97728.47;;;-3.71;77.63
75717;BME280;64333;50.138;14.332;2022-12-13T07:28:45;97726.88;;;-3.09;76.41
75717;BME280;64333;50.138;14.332;2022-12-13T07:31:12;97726.03;;;-3.07;74.20
75717;BME280;64333;50.138;14.332;2022-12-13T07:33:38;97722.63;;;-2.56;71.83
75717;BME280;64333;50.138;14.332;2022-12-13T07:38:35;97722.03;;;-1.21;73.72
75717;BME280;64333;50.138;14.332;2022-12-13T07:41:02;97727.72;;;-0.92;73.56
75717;BME280;64333;50.138;14.332;2022-12-13T07:43:28;97720.09;;;-0.91;68.30
75717;BME280;64333;50.138;14.332;2022-12-13T07:45:57;97726.66;;;-0.69;65.62
75717;BME280;64333;50.138;14.332;2022-12-13T07:48:22;97729.03;;;-0.49;62.93
75717;BME280;64333;50.138;14.332;2022-12-13T07:50:48;97729.06;;;-0.54;63.34
75717;BME280;64333;50.138;14.332;2022-12-13T07:53:13;97728.38;;;0.07;66.60
75717;BME280;64333;50.138;14.332;2022-12-13T07:55:38;97729.19;;;0.74;65.09
75717;BME280;64333;50.138;14.332;2022-12-13T07:58:12;97733.03;;;1.52;64.58
75717;BME280;64333;50.138;14.332;2022-12-13T08:00:40;97736.34;;;1.57;61.56
75717;BME280;64333;50.138;14.332;2022-12-13T08:03:05;97733.06;;;1.96;59.41
75717;BME280;64333;50.138;14.332;2022-12-13T08:05:32;97734.41;;;2.14;60.66
75717;BME280;64333;50.138;14.332;2022-12-13T08:07:58;97747.91;;;2.58;62.62
75717;BME280;64333;50.138;14.332;2022-12-13T08:10:24;97743.50;;;2.65;58.31
75717;BME280;64333;50.138;14.332;2022-12-13T08:12:49;97741.81;;;2.65;57.77
75717;BME280;64333;50.138;14.332;2022-12-13T08:15:15;97739.19;;;3.06;57.19
75717;BME280;64333;50.138;14.332;2022-12-13T08:17:41;97750.31;;;3.02;58.25
75717;BME280;64333;50.138;14.332;2022-12-13T08:20:07;97747.97;;;2.93;62.10
75717;BME280;64333;50.138;14.332;2022-12-13T08:22:32;97748.78;;;3.65;61.70
75717;BME280;64333;50.138;14.332;2022-12-13T08:24:58;97756.72;;;3.55;58.74
75717;BME280;64333;50.138;14.332;2022-12-13T08:27:23;97751.84;;;4.10;57.67
75717;BME280;64333;50.138;14.332;2022-12-13T08:29:48;97758.63;;;3.79;54.79
75717;BME280;64333;50.138;14.332;2022-12-13T08:32:14;97760.97;;;3.88;51.86
75717;BME280;64333;50.138;14.332;2022-12-13T08:34:40;97768.63;;;3.88;54.50
75717;BME280;64333;50.138;14.332;2022-12-13T08:37:06;97764.22;;;4.84;51.75
75717;BME280;64333;50.138;14.332;2022-12-13T08:39:33;97762.44;;;4.86;50.44
75717;BME280;64333;50.138;14.332;2022-12-13T08:41:59;97770.53;;;5.27;47.86
75717;BME280;64333;50.138;14.332;2022-12-13T08:44:24;97765.22;;;5.59;52.65
75717;BME280;64333;50.138;14.332;2022-12-13T08:46:49;97770.28;;;5.61;47.46
75717;BME280;64333;50.138;14.332;2022-12-13T08:49:15;97767.25;;;5.50;47.61
75717;BME280;64333;50.138;14.332;2022-12-13T08:51:40;97767.31;;;5.21;50.14
75717;BME280;64333;50.138;14.332;2022-12-13T08:54:06;97760.56;;;5.44;46.52
75717;BME280;64333;50.138;14.332;2022-12-13T08:56:31;97759.34;;;6.31;49.06
75717;BME280;64333;50.138;14.332;2022-12-13T08:58:56;97769.81;;;6.25;43.75
75717;BME280;64333;50.138;14.332;2022-12-13T09:01:22;97768.91;;;6.03;44.28
75717;BME280;64333;50.138;14.332;2022-12-13T09:03:47;97778.47;;;5.98;43.28
75717;BME280;64333;50.138;14.332;2022-12-13T09:06:15;97781.00;;;6.47;41.95
75717;BME280;64333;50.138;14.332;2022-12-13T09:08:42;97777.78;;;5.93;41.63
75717;BME280;64333;50.138;14.332;2022-12-13T09:11:09;97770.75;;;5.73;43.11
75717;BME280;64333;50.138;14.332;2022-12-13T09:13:36;97775.72;;;5.52;43.55
75717;BME280;64333;50.138;14.332;2022-12-13T09:16:07;97776.84;;;5.95;41.80
75717;BME280;64333;50.138;14.332;2022-12-13T09:18:33;97778.66;;;6.41;41.28
75717;BME280;64333;50.138;14.332;2022-12-13T09:20:59;97775.00;;;6.48;41.89
75717;BME280;64333;50.138;14.332;2022-12-13T09:23:24;97773.94;;;7.21;40.29
75717;BME280;64333;50.138;14.332;2022-12-13T09:25:57;97768.97;;;6.49;40.00
75717;BME280;64333;50.138;14.332;2022-12-13T09:28:22;97777.81;;;6.40;40.71
75717;BME280;64333;50.138;14.332;2022-12-13T09:30:48;97779.53;;;6.40;39.75
75717;BME280;64333;50.138;14.332;2022-12-13T09:33:14;97774.78;;;6.29;40.47
75717;BME280;64333;50.138;14.332;2022-12-13T09:35:40;97780.28;;;6.19;39.56
75717;BME280;64333;50.138;14.332;2022-12-13T09:38:05;97773.03;;;6.07;40.84
75717;BME280;64333;50.138;14.332;2022-12-13T09:40:31;97777.31;;;6.54;41.37
75717;BME280;64333;50.138;14.332;2022-12-13T09:42:59;97770.66;;;6.50;40.54
75717;BME280;64333;50.138;14.332;2022-12-13T09:45:28;97771.84;;;8.33;37.91
75717;BME280;64333;50.138;14.332;2022-12-13T09:47:54;97753.03;;;8.70;38.58
75717;BME280;64333;50.138;14.332;2022-12-13T09:52:56;97761.63;;;8.50;38.18
75717;BME280;64333;50.138;14.332;2022-12-13T09:55:31;97765.44;;;6.28;38.27
75717;BME280;64333;50.138;14.332;2022-12-13T09:58:06;97754.84;;;6.60;41.22
75717;BME280;64333;50.138;14.332;2022-12-13T10:00:35;97751.69;;;7.20;41.42
75717;BME280;64333;50.138;14.332;2022-12-13T10:03:01;97747.22;;;6.36;39.95
75717;BME280;64333;50.138;14.332;2022-12-13T10:05:35;97758.59;;;7.41;40.31
75717;BME280;64333;50.138;14.332;2022-12-13T10:08:11;97749.47;;;7.74;37.33
75717;BME280;64333;50.138;14.332;2022-12-13T10:10:38;97744.66;;;8.46;37.85
75717;BME280;64333;50.138;14.332;2022-12-13T10:15:47;97743.00;;;9.72;35.58
75717;BME280;64333;50.138;14.332;2022-12-13T10:18:21;97740.22;;;8.87;34.75
75717;BME280;64333;50.138;14.332;2022-12-13T10:20:49;97736.69;;;8.71;36.53
75717;BME280;64333;50.138;14.332;2022-12-13T10:23:15;97727.63;;;8.99;33.58
75717;BME280;64333;50.138;14.332;2022-12-13T10:25:50;97733.00;;;8.95;34.62
75717;BME280;64333;50.138;14.332;2022-12-13T10:28:32;97729.19;;;9.20;34.54
75717;BME280;64333;50.138;14.332;2022-12-13T10:30:58;97730.34;;;8.96;34.70
75717;BME280;64333;50.138;14.332;2022-12-13T10:33:36;97724.00;;;8.85;35.16
75717;BME280;64333;50.138;14.332;2022-12-13T10:38:43;97725.97;;;8.61;35.96
75717;BME280;64333;50.138;14.332;2022-12-13T10:41:33;97721.63;;;9.87;34.26
75717;BME280;64333;50.138;14.332;2022-12-13T10:44:25;97724.81;;;10.74;32.28
75717;BME280;64333;50.138;14.332;2022-12-13T10:49:47;97723.72;;;10.77;32.17
75717;BME280;64333;50.138;14.332;2022-12-13T10:52:33;97720.56;;;11.19;31.48
75717;BME280;64333;50.138;14.332;2022-12-13T10:55:50;97736.03;;;10.73;31.26
75717;BME280;64333;50.138;14.332;2022-12-13T10:57:52;97740.66;;;10.51;31.86
75717;BME280;64333;50.138;14.332;2022-12-13T11:00:34;97721.31;;;10.27;32.19
75717;BME280;64333;50.138;14.332;2022-12-13T11:03:00;97726.31;;;10.30;32.46
75717;BME280;64333;50.138;14.332;2022-12-13T11:05:26;97725.66;;;10.42;32.39
75717;BME280;64333;50.138;14.332;2022-12-13T11:07:53;97720.00;;;10.51;32.06
75717;BME280;64333;50.138;14.332;2022-12-13T11:12:46;97709.69;;;10.01;31.75
75717;BME280;64333;50.138;14.332;2022-12-13T11:15:20;97692.63;;;9.65;33.04
75717;BME280;64333;50.138;14.332;2022-12-13T11:17:50;97697.56;;;9.69;33.87
75717;BME280;64333;50.138;14.332;2022-12-13T11:20:23;97704.78;;;9.63;33.58
75717;BME280;64333;50.138;14.332;2022-12-13T11:23:03;97701.94;;;10.01;32.99
75717;BME280;64333;50.138;14.332;2022-12-13T11:25:35;97698.03;;;9.08;34.66
75717;BME280;64333;50.138;14.332;2022-12-13T11:30:45;97701.09;;;9.16;35.01
75717;BME280;64333;50.138;14.332;2022-12-13T11:33:20;97695.38;;;9.62;33.48
75717;BME280;64333;50.138;14.332;2022-12-13T11:36:18;97693.38;;;10.01;34.11
75717;BME280;64333;50.138;14.332;2022-12-13T11:39:13;97691.22;;;10.26;33.00
75717;BME280;64333;50.138;14.332;2022-12-13T11:44:22;97682.59;;;10.27;32.56
75717;BME280;64333;50.138;14.332;2022-12-13T11:46:58;97685.31;;;10.24;32.47
75717;BME280;64333;50.138;14.332;2022-12-13T11:49:37;97684.97;;;9.46;34.50
75717;BME280;64333;50.138;14.332;2022-12-13T11:54:37;97677.38;;;9.26;34.05
75717;BME280;64333;50.138;14.332;2022-12-13T11:57:36;97680.88;;;9.25;35.22
75717;BME280;64333;50.138;14.332;2022-12-13T12:02:45;97678.63;;;9.70;34.65
75717;BME280;64333;50.138;14.332;2022-12-13T12:08:20;97673.69;;;9.49;35.25
75717;BME280;64333;50.138;14.332;2022-12-13T12:11:43;97688.03;;;9.19;34.72
75717;BME280;64333;50.138;14.332;2022-12-13T12:13:51;97680.47;;;8.62;36.59
75717;BME280;64333;50.138;14.332;2022-12-13T12:18:55;97672.75;;;8.62;37.82
75717;BME280;64333;50.138;14.332;2022-12-13T12:21:36;97676.69;;;8.32;37.34
75717;BME280;64333;50.138;14.332;2022-12-13T12:24:06;97675.72;;;7.96;37.96
75717;BME280;64333;50.138;14.332;2022-12-13T12:27:19;97676.50;;;7.78;38.29
75717;BME280;64333;50.138;14.332;2022-12-13T12:30:00;97668.34;;;8.07;38.02
75717;BME280;64333;50.138;14.332;2022-12-13T12:32:37;97664.56;;;7.57;38.38
75717;BME280;64333;50.138;14.332;2022-12-13T12:43:35;97661.34;;;7.10;40.47
75717;BME280;64333;50.138;14.332;2022-12-13T12:51:26;97657.91;;;6.90;40.33
75717;BME280;64333;50.138;14.332;2022-12-13T12:56:41;97662.38;;;6.63;41.38
75717;BME280;64333;50.138;14.332;2022-12-13T13:02:16;97645.78;;;5.81;43.22
75717;BME280;64333;50.138;14.332;2022-12-13T13:04:49;97658.31;;;5.64;43.81
75717;BME280;64333;50.138;14.332;2022-12-13T13:07:28;97651.72;;;6.06;43.22
75717;BME280;64333;50.138;14.332;2022-12-13T13:09:57;97648.66;;;5.72;42.98
75717;BME280;64333;50.138;14.332;2022-12-13T13:12:24;97644.94;;;5.56;43.76
75717;BME280;64333;50.138;14.332;2022-12-13T13:14:50;97642.00;;;5.18;45.40
75717;BME280;64333;50.138;14.332;2022-12-13T13:19:47;97654.75;;;4.94;45.47
75717;BME280;64333;50.138;14.332;2022-12-13T13:22:34;97648.38;;;4.79;46.29
75717;BME280;64333;50.138;14.332;2022-12-13T13:27:43;97666.63;;;4.12;47.91
75717;BME280;64333;50.138;14.332;2022-12-13T13:32:41;97664.88;;;2.48;51.30
75717;BME280;64333;50.138;14.332;2022-12-13T13:40:42;97663.59;;;0.97;57.19
75717;BME280;64333;50.138;14.332;2022-12-13T14:00:08;97667.47;;;-1.70;67.53
75717;BME280;64333;50.138;14.332;2022-12-13T14:08:16;97685.63;;;-2.86;72.80
75717;BME280;64333;50.138;14.332;2022-12-13T14:11:09;97692.41;;;-3.18;75.15
75717;BME280;64333;50.138;14.332;2022-12-13T14:21:57;97683.00;;;-4.04;79.21
75717;BME280;64333;50.138;14.332;2022-12-13T14:24:49;97687.09;;;-4.33;81.58
75717;BME280;64333;50.138;14.332;2022-12-13T14:29:46;97682.78;;;-4.58;83.15
75717;BME280;64333;50.138;14.332;2022-12-13T14:32:20;97684.38;;;-4.69;83.39
75717;BME280;64333;50.138;14.332;2022-12-13T14:34:46;97679.28;;;-4.83;84.41
75717;BME280;64333;50.138;14.332;2022-12-13T14:37:25;97681.75;;;-4.93;84.63
75717;BME280;64333;50.138;14.332;2022-12-13T14:39:54;97679.13;;;-5.05;85.60
75717;BME280;64333;50.138;14.332;2022-12-13T14:42:23;97685.75;;;-5.19;86.02
75717;BME280;64333;50.138;14.332;2022-12-13T14:44:49;97686.59;;;-5.20;85.43
75717;BME280;64333;50.138;14.332;2022-12-13T14:47:15;97693.16;;;-5.32;86.24
75717;BME280;64333;50.138;14.332;2022-12-13T14:49:43;97683.91;;;-5.41;87.54
75717;BME280;64333;50.138;14.332;2022-12-13T14:54:48;97682.03;;;-5.61;88.15
75717;BME280;64333;50.138;14.332;2022-12-13T14:57:17;97684.56;;;-5.58;88.18
75717;BME280;64333;50.138;14.332;2022-12-13T14:59:51;97675.28;;;-5.67;88.44
75717;BME280;64333;50.138;14.332;2022-12-13T15:02:20;97683.56;;;-5.80;88.41
75717;BME280;64333;50.138;14.332;2022-12-13T15:04:47;97683.44;;;-5.92;90.02
75717;BME280;64333;50.138;14.332;2022-12-13T15:07:29;97691.75;;;-5.99;89.85
75717;BME280;64333;50.138;14.332;2022-12-13T15:09:58;97692.50;;;-6.07;90.95